Time;durP1;ratioP1;P1;durP2;ratioP2;P2;SDS_P1;SDS_P2;PMS_P1;PMS_P2;Temp;Humidity;BMP_temperature;BMP_pressure;BME280_temperature;BME280_humidity;BME280_pressure;Samples;Min_cycle;Max_cycle;Signal;HPM_P1;HPM_P2
2023/01/14 00:01:06;;;;;;;9.60;5.60;;;;;;;7.06;95.82;100299.73;105028;1259;102611;-76
2023/01/14 00:03:51;;;;;;;12.30;6.20;;;;;;;7.04;95.72;100301.87;104870;1264;99136;-74
2023/01/14 00:06:37;;;;;;;13.40;6.20;;;;;;;7.03;95.54;100305.04;105092;1263;98134;-75
2023/01/14 00:09:27;;;;;;;10.10;5.60;;;;;;;7.00;95.42;100304.85;105064;1263;97971;-76
2023/01/14 00:12:12;;;;;;;12.60;6.00;;;;;;;6.97;95.45;100304.63;105374;1263;99069;-74
2023/01/14 00:14:58;;;;;;;9.50;5.30;;;;;;;6.96;95.23;100310.59;105088;1259;102622;-77
2023/01/14 00:17:47;;;;;;;9.90;5.80;;;;;;;6.94;95.26;100315.15;105115;1262;99184;-76
2023/01/14 00:20:33;;;;;;;10.90;6.20;;;;;;;6.91;95.34;100319.19;105037;1259;98890;-75
2023/01/14 00:23:18;;;;;;;13.30;6.60;;;;;;;6.89;95.27;100318.83;104971;1273;99149;-75
2023/01/14 00:26:13;;;;;;;11.40;6.00;;;;;;;6.88;95.43;100320.60;105125;1264;97908;-75
2023/01/14 00:28:59;;;;;;;13.70;6.60;;;;;;;6.86;95.34;100322.20;105686;1260;102706;-75
2023/01/14 00:31:46;;;;;;;11.50;6.10;;;;;;;6.85;95.18;100322.63;104987;1266;101155;-75
2023/01/14 00:34:33;;;;;;;11.60;5.90;;;;;;;6.86;95.34;100324.03;105064;1264;97996;-75
2023/01/14 00:37:18;;;;;;;11.00;5.90;;;;;;;6.86;95.07;100323.45;104921;1264;97955;-77
2023/01/14 00:40:04;;;;;;;12.20;5.70;;;;;;;6.86;95.05;100327.71;105079;1264;97801;-76
2023/01/14 00:42:50;;;;;;;10.30;5.80;;;;;;;6.85;95.35;100327.58;105815;1257;101453;-75
2023/01/14 00:45:36;;;;;;;13.00;5.60;;;;;;;6.86;95.20;100332.27;105055;1261;100942;-75
2023/01/14 00:48:22;;;;;;;9.50;6.10;;;;;;;6.87;95.22;100339.46;105103;1261;99161;-75
2023/01/14 00:51:09;;;;;;;9.90;5.50;;;;;;;6.87;95.04;100340.36;105015;1263;97950;-77
2023/01/14 00:53:56;;;;;;;10.50;5.40;;;;;;;6.87;94.78;100344.81;105111;1273;98490;-74
2023/01/14 00:56:41;;;;;;;9.40;5.60;;;;;;;6.87;94.60;100350.13;104999;1264;101339;-76
2023/01/14 00:59:29;;;;;;;13.00;5.50;;;;;;;6.87;94.53;100348.38;105106;1262;99158;-74
2023/01/14 01:02:14;;;;;;;9.80;5.70;;;;;;;6.86;94.45;100352.50;104890;1265;98041;-74
2023/01/14 01:05:00;;;;;;;8.70;5.40;;;;;;;6.86;94.45;100352.05;104876;1258;97962;-75
2023/01/14 01:07:45;;;;;;;10.40;5.50;;;;;;;6.86;94.41;100347.95;105106;1263;97862;-76
2023/01/14 01:10:34;;;;;;;10.10;5.30;;;;;;;6.87;94.25;100346.02;105068;1264;102590;-75
2023/01/14 01:13:22;;;;;;;9.70;5.00;;;;;;;6.87;94.07;100347.81;105255;1260;99187;-75
2023/01/14 01:16:12;;;;;;;9.80;5.00;;;;;;;6.86;93.91;100347.77;104921;1265;98642;-74
2023/01/14 01:18:58;;;;;;;10.40;5.50;;;;;;;6.85;94.03;100349.35;105077;1263;99269;-75
2023/01/14 01:21:46;;;;;;;11.30;5.10;;;;;;;6.84;93.99;100349.23;105061;1263;98571;-74
2023/01/14 01:24:31;;;;;;;11.50;5.50;;;;;;;6.84;93.84;100354.75;105130;1264;101498;-74
2023/01/14 01:27:17;;;;;;;9.40;5.00;;;;;;;6.84;93.87;100354.75;105093;1263;101817;-75
2023/01/14 01:30:03;;;;;;;8.00;5.00;;;;;;;6.84;93.83;100351.55;104843;1274;99327;-75
2023/01/14 01:32:50;;;;;;;11.50;6.00;;;;;;;6.84;93.95;100352.05;105116;1269;98015;-75
2023/01/14 01:35:35;;;;;;;10.40;5.00;;;;;;;6.86;93.90;100354.54;105104;1271;99464;-75
2023/01/14 01:38:21;;;;;;;12.00;5.50;;;;;;;6.86;93.81;100361.23;105078;1264;102544;-74
2023/01/14 01:41:08;;;;;;;10.70;5.30;;;;;;;6.86;93.67;100363.23;105178;1261;99064;-75
2023/01/14 01:43:59;;;;;;;10.10;5.60;;;;;;;6.85;93.46;100365.05;105056;1266;98981;-75
2023/01/14 01:46:45;;;;;;;9.90;4.70;;;;;;;6.84;93.32;100367.93;104978;1265;98056;-74
2023/01/14 01:49:34;;;;;;;8.10;4.80;;;;;;;6.81;93.11;100366.95;105139;1264;98474;-75
2023/01/14 01:52:29;;;;;;;10.80;5.20;;;;;;;6.77;92.88;100368.42;105075;1268;101405;-74
2023/01/14 01:55:15;;;;;;;8.90;5.70;;;;;;;6.75;93.10;100368.86;105129;1264;100337;-75
2023/01/14 01:58:02;;;;;;;14.80;6.10;;;;;;;6.73;92.90;100369.46;105088;1260;100137;-74
2023/01/14 02:00:47;;;;;;;9.50;5.50;;;;;;;6.69;92.80;100371.82;104948;1264;97951;-74
2023/01/14 02:03:40;;;;;;;9.80;5.80;;;;;;;6.66;92.91;100371.50;105080;1264;98485;-75
2023/01/14 02:06:27;;;;;;;11.10;5.80;;;;;;;6.64;92.84;100368.38;105070;1272;101456;-74
2023/01/14 02:09:15;;;;;;;11.40;5.60;;;;;;;6.62;92.83;100368.54;105062;1263;99816;-74
2023/01/14 02:12:28;;;;;;;18.00;5.80;;;;;;;6.60;92.78;100365.91;105111;1261;98728;-74
2023/01/14 02:15:31;;;;;;;12.00;6.20;;;;;;;6.57;92.83;100367.86;105026;1272;97990;-74
2023/01/14 02:18:17;;;;;;;11.80;5.30;;;;;;;6.55;92.78;100366.67;105124;1263;98524;-75
2023/01/14 02:21:15;;;;;;;9.40;5.70;;;;;;;6.53;92.78;100368.30;105152;1264;102649;-74
2023/01/14 02:24:19;;;;;;;11.10;6.30;;;;;;;6.52;92.81;100371.83;104877;1264;100992;-74
2023/01/14 02:27:29;;;;;;;10.40;5.80;;;;;;;6.50;92.80;100374.45;105154;1260;98963;-75
2023/01/14 02:30:25;;;;;;;10.10;5.70;;;;;;;6.48;92.87;100373.95;105004;1263;97973;-75
2023/01/14 02:33:41;;;;;;;11.10;5.70;;;;;;;6.47;92.93;100379.28;105111;1261;98404;-75
2023/01/14 02:36:32;;;;;;;8.50;5.60;;;;;;;6.45;92.82;100380.94;105050;1261;103573;-75
2023/01/14 02:39:27;;;;;;;9.80;5.90;;;;;;;6.43;92.76;100382.48;105130;1263;101264;-76
2023/01/14 02:45:51;;;;;;;12.40;6.30;;;;;;;6.39;92.66;100386.33;105043;1263;99147;-75
2023/01/14 02:48:39;;;;;;;15.50;6.50;;;;;;;6.37;92.71;100392.44;105137;1257;99132;-75
2023/01/14 02:51:25;;;;;;;13.40;6.60;;;;;;;6.36;92.81;100397.35;105073;1261;101321;-73
2023/01/14 02:54:11;;;;;;;13.90;6.90;;;;;;;6.34;92.83;100394.20;105136;1261;99373;-75
2023/01/14 02:57:06;;;;;;;11.00;6.80;;;;;;;6.32;92.68;100394.54;105094;1259;98999;-74
2023/01/14 03:00:07;;;;;;;11.70;6.20;;;;;;;6.31;92.56;100399.81;105143;1257;98021;-75
2023/01/14 03:03:11;;;;;;;11.60;5.60;;;;;;;6.29;92.65;100397.35;105148;1257;97937;-76
2023/01/14 03:06:26;;;;;;;11.60;5.90;;;;;;;6.29;92.64;100396.52;105141;1257;102714;-74
2023/01/14 03:09:38;;;;;;;11.20;5.70;;;;;;;6.28;92.78;100396.78;105661;1260;100488;-75
2023/01/14 03:12:30;;;;;;;8.90;5.30;;;;;;;6.28;92.49;100399.81;104902;1267;98067;-74
2023/01/14 03:15:41;;;;;;;9.00;5.20;;;;;;;6.26;92.58;100397.48;105076;1262;99281;-74
2023/01/14 03:18:38;;;;;;;10.80;5.40;;;;;;;6.25;92.50;100402.59;105026;1263;98028;-75
2023/01/14 03:21:29;;;;;;;11.90;5.80;;;;;;;6.23;92.45;100403.63;105107;1263;101448;-75
2023/01/14 03:24:22;;;;;;;9.30;5.40;;;;;;;6.23;92.40;100404.23;105182;1261;99129;-76
2023/01/14 03:27:13;;;;;;;14.00;5.00;;;;;;;6.22;92.33;100410.10;105247;1260;99166;-74
2023/01/14 03:30:03;;;;;;;;;;;;;;;6.21;92.09;100414.70;105063;1263;98067;-74
2023/01/14 03:32:56;;;;;;;8.90;4.60;;;;;;;6.18;92.25;100417.85;105131;1264;97979;-74
2023/01/14 03:35:44;;;;;;;10.00;4.40;;;;;;;6.18;92.09;100424.45;105175;1264;101341;-76
2023/01/14 03:38:38;;;;;;;8.30;4.90;;;;;;;6.17;92.14;100423.22;105117;1262;99378;-75
2023/01/14 03:44:49;;;;;;;9.60;4.40;;;;;;;6.16;91.91;100427.77;105212;1258;98758;-75
2023/01/14 03:47:36;;;;;;;11.00;4.40;;;;;;;6.15;91.91;100431.13;105127;1264;97959;-74
2023/01/14 03:50:26;;;;;;;10.80;4.90;;;;;;;6.14;91.67;100430.66;105086;1263;101381;-75
2023/01/14 03:53:19;;;;;;;7.90;3.80;;;;;;;6.14;91.66;100434.39;105207;1263;100307;-76
2023/01/14 03:56:27;;;;;;;7.60;4.30;;;;;;;6.14;91.59;100434.45;105090;1261;98919;-75
2023/01/14 03:59:21;;;;;;;9.30;3.80;;;;;;;6.14;91.57;100441.86;105171;1257;98089;-75
2023/01/14 04:02:09;;;;;;;7.60;3.70;;;;;;;6.13;91.41;100440.86;105209;1261;99083;-76
2023/01/14 04:04:56;;;;;;;6.60;3.60;;;;;;;6.14;91.59;100441.50;105136;1260;101426;-76
2023/01/14 04:07:43;;;;;;;6.80;4.20;;;;;;;6.16;91.52;100442.53;105108;1263;99162;-74
2023/01/14 04:10:29;;;;;;;11.60;4.00;;;;;;;6.17;91.61;100438.89;105143;1260;98993;-74
2023/01/14 04:16:20;;;;;;;8.30;4.00;;;;;;;6.19;91.53;100446.67;105007;1257;98599;-74
2023/01/14 04:19:05;;;;;;;9.00;3.70;;;;;;;6.20;91.52;100444.91;105062;1261;102605;-74
2023/01/14 04:21:51;;;;;;;6.80;3.80;;;;;;;6.22;91.45;100445.45;105123;1264;99886;-75
2023/01/14 04:24:36;;;;;;;6.50;3.00;;;;;;;6.24;91.52;100450.00;105117;1257;97969;-74
2023/01/14 04:27:22;;;;;;;8.20;3.50;;;;;;;6.26;91.29;100453.73;105108;1260;98059;-75
2023/01/14 04:30:08;;;;;;;7.00;3.50;;;;;;;6.28;91.25;100452.41;105106;1263;97859;-74
2023/01/14 04:32:54;;;;;;;6.80;3.20;;;;;;;6.31;91.19;100456.44;105218;1258;101391;-75
2023/01/14 04:35:40;;;;;;;7.40;3.80;;;;;;;6.31;91.00;100461.02;105133;1258;99395;-75
2023/01/14 04:38:25;;;;;;;6.90;3.10;;;;;;;6.31;91.03;100463.61;105040;1277;98989;-75
2023/01/14 04:42:26;;;;;;;8.60;3.10;;;;;;;6.33;91.07;100467.45;105164;1272;97935;-75
2023/01/14 04:44:17;;;;;;;5.30;3.20;;;;;;;6.37;90.88;100472.45;105076;1272;98733;-75
2023/01/14 04:47:02;;;;;;;8.80;3.70;;;;;;;6.40;90.97;100476.88;105113;1257;101860;-74
2023/01/14 04:49:48;;;;;;;6.70;3.00;;;;;;;6.42;91.02;100481.63;105073;1264;100979;-74
2023/01/14 04:52:33;;;;;;;6.30;2.90;;;;;;;6.44;90.92;100487.23;105086;1263;98987;-74
2023/01/14 04:55:19;;;;;;;6.50;3.10;;;;;;;6.46;90.84;100488.59;105054;1257;97993;-74
2023/01/14 04:58:07;;;;;;;7.50;3.20;;;;;;;6.48;90.93;100490.92;105194;1257;99570;-74
2023/01/14 05:00:53;;;;;;;7.40;3.40;;;;;;;6.49;90.76;100496.80;105092;1264;102595;-74
2023/01/14 05:03:38;;;;;;;7.30;2.90;;;;;;;6.51;90.73;100495.50;105056;1257;100917;-75
2023/01/14 05:06:25;;;;;;;6.20;2.70;;;;;;;6.53;90.60;100494.77;104959;1264;98387;-74
2023/01/14 05:09:11;;;;;;;7.90;2.90;;;;;;;6.55;90.42;100496.53;105105;1257;98006;-77
2023/01/14 05:11:56;;;;;;;6.50;2.90;;;;;;;6.57;90.51;100500.95;105045;1261;99076;-76
2023/01/14 05:14:42;;;;;;;4.40;2.70;;;;;;;6.58;90.42;100505.71;105082;1263;101339;-76
2023/01/14 05:17:28;;;;;;;7.50;3.10;;;;;;;6.58;90.35;100505.56;105148;1258;100490;-73
2023/01/14 05:20:13;;;;;;;8.60;3.00;;;;;;;6.60;90.28;100508.98;105030;1257;99116;-75
2023/01/14 05:23:01;;;;;;;8.20;3.20;;;;;;;6.60;90.32;100509.95;105117;1257;97949;-75
2023/01/14 05:25:47;;;;;;;7.20;3.20;;;;;;;6.61;90.28;100519.40;105138;1261;98472;-74
2023/01/14 05:28:33;;;;;;;7.70;3.10;;;;;;;6.62;90.22;100521.44;105120;1263;101856;-74
2023/01/14 05:31:19;;;;;;;7.90;3.60;;;;;;;6.62;90.19;100520.91;105000;1262;100777;-75
2023/01/14 05:34:04;;;;;;;8.50;3.10;;;;;;;6.63;90.40;100520.97;105160;1257;98527;-75
2023/01/14 05:36:50;;;;;;;6.90;2.80;;;;;;;6.65;90.23;100528.45;105076;1257;97828;-75
2023/01/14 05:39:35;;;;;;;5.90;2.70;;;;;;;6.66;90.19;100529.92;105200;1258;98501;-75
2023/01/14 05:48:29;;;;;;;7.60;3.30;;;;;;;6.69;89.91;100538.27;105058;1263;98051;-75
2023/01/14 05:51:15;;;;;;;5.50;2.70;;;;;;;6.70;89.93;100539.27;105113;1262;98023;-75
2023/01/14 05:54:01;;;;;;;6.00;2.60;;;;;;;6.71;89.86;100545.57;105041;1261;98614;-75
2023/01/14 05:56:46;;;;;;;4.90;2.50;;;;;;;6.72;89.75;100549.16;105090;1261;102695;-76
2023/01/14 05:59:32;;;;;;;6.80;3.00;;;;;;;6.73;89.73;100554.36;105071;1261;99056;-74
2023/01/14 06:08:28;;;;;;;7.80;2.80;;;;;;;6.77;89.67;100569.34;105184;1261;97858;-75
2023/01/14 06:11:13;;;;;;;7.30;2.70;;;;;;;6.78;89.54;100574.23;105405;1265;101481;-75
2023/01/14 06:14:00;;;;;;;4.90;2.90;;;;;;;6.79;89.72;100570.21;105183;1261;99098;-75
2023/01/14 06:16:51;;;;;;;4.00;2.30;;;;;;;6.80;89.52;100570.80;105065;1257;97978;-75
2023/01/14 06:19:37;;;;;;;5.10;2.20;;;;;;;6.81;89.43;100573.34;105124;1258;98059;-74
2023/01/14 06:22:23;;;;;;;5.70;2.90;;;;;;;6.82;89.25;100575.38;105041;1263;98433;-75
2023/01/14 06:25:09;;;;;;;4.30;2.10;;;;;;;6.83;89.32;100575.98;105109;1260;101356;-76
2023/01/14 06:27:56;;;;;;;8.00;2.80;;;;;;;6.84;89.43;100580.52;105175;1261;99139;-75
2023/01/14 06:30:41;;;;;;;6.30;3.00;;;;;;;6.85;89.49;100583.27;105005;1260;98003;-74
2023/01/14 06:33:27;;;;;;;4.50;2.10;;;;;;;6.86;89.37;100586.65;105113;1257;98501;-74
2023/01/14 06:36:14;;;;;;;6.90;2.90;;;;;;;6.87;89.19;100582.80;105103;1261;97939;-74
2023/01/14 06:39:00;;;;;;;7.70;2.60;;;;;;;6.87;89.09;100577.70;105139;1262;102609;-75
2023/01/14 06:41:45;;;;;;;4.50;2.30;;;;;;;6.86;88.91;100584.66;105098;1261;99804;-75
2023/01/14 06:44:30;;;;;;;6.30;2.30;;;;;;;6.87;88.85;100587.48;105118;1260;98946;-76
2023/01/14 06:47:16;;;;;;;9.80;3.30;;;;;;;6.87;88.96;100590.64;105056;1259;98096;-75
2023/01/14 06:50:03;;;;;;;6.90;2.70;;;;;;;6.87;88.95;100592.36;105116;1264;98477;-75
2023/01/14 06:52:48;;;;;;;7.50;3.30;;;;;;;6.89;88.99;100594.73;105202;1258;102856;-75
2023/01/14 06:55:34;;;;;;;7.20;2.90;;;;;;;6.89;88.83;100595.96;105185;1257;99195;-75
2023/01/14 06:58:20;;;;;;;9.50;2.50;;;;;;;6.88;88.46;100597.95;105043;1257;99069;-75
2023/01/14 07:01:06;;;;;;;4.70;2.00;;;;;;;6.87;88.36;100601.35;105144;1261;98082;-74
2023/01/14 07:03:51;;;;;;;6.20;2.10;;;;;;;6.85;88.52;100607.33;105102;1257;98413;-74
2023/01/14 07:06:37;;;;;;;7.70;2.60;;;;;;;6.85;88.64;100610.73;105054;1257;101357;-74
2023/01/14 07:09:22;;;;;;;5.40;2.60;;;;;;;6.85;88.60;100607.93;105125;1261;99124;-74
2023/01/14 07:12:07;;;;;;;5.20;2.10;;;;;;;6.84;88.43;100610.11;105042;1258;97971;-74
2023/01/14 07:14:53;;;;;;;4.80;2.10;;;;;;;6.83;88.61;100613.45;105145;1261;97946;-75
2023/01/14 07:17:39;;;;;;;7.10;2.60;;;;;;;6.83;88.38;100612.95;105087;1266;99660;-75
2023/01/14 07:20:24;;;;;;;6.80;2.40;;;;;;;6.81;88.41;100616.69;105166;1262;102436;-75
2023/01/14 07:23:10;;;;;;;7.60;2.50;;;;;;;6.80;88.44;100624.09;105117;1261;99086;-76
2023/01/14 07:25:56;;;;;;;6.60;2.90;;;;;;;6.77;88.26;100630.20;105117;1258;97967;-75
2023/01/14 07:28:41;;;;;;;8.10;3.00;;;;;;;6.76;88.05;100627.00;105026;1264;98607;-76
2023/01/14 07:31:27;;;;;;;8.80;3.70;;;;;;;6.73;88.14;100636.69;105083;1263;98394;-75
2023/01/14 07:34:13;;;;;;;7.80;3.70;;;;;;;6.71;88.15;100639.41;105067;1261;102738;-74
2023/01/14 07:36:58;;;;;;;5.70;3.50;;;;;;;6.68;88.10;100641.25;105172;1259;100327;-74
2023/01/14 07:39:44;;;;;;;9.30;3.30;;;;;;;6.67;88.11;100645.17;105057;1259;99045;-75
2023/01/14 07:42:30;;;;;;;11.60;3.20;;;;;;;6.65;88.02;100643.04;105118;1261;98016;-75
2023/01/14 07:45:16;;;;;;;6.40;2.80;;;;;;;6.64;88.40;100644.20;105118;1262;99649;-76
2023/01/14 07:48:01;;;;;;;9.30;3.20;;;;;;;6.63;88.29;100643.03;105308;1261;102629;-75
2023/01/14 07:50:46;;;;;;;8.20;3.40;;;;;;;6.63;88.50;100646.76;105174;1259;99292;-75
2023/01/14 07:53:32;;;;;;;10.70;4.10;;;;;;;6.64;88.50;100648.59;105074;1261;98982;-75
2023/01/14 07:56:18;;;;;;;15.20;6.10;;;;;;;6.66;88.39;100647.06;105107;1261;97982;-73
2023/01/14 07:59:03;;;;;;;5.70;3.10;;;;;;;6.67;88.62;100651.73;105048;1261;97752;-74
2023/01/14 08:01:49;;;;;;;9.30;3.90;;;;;;;6.70;88.73;100653.37;105037;1258;102506;-76
2023/01/14 08:04:34;;;;;;;8.20;3.70;;;;;;;6.74;88.67;100657.58;105004;1259;99193;-75
2023/01/14 08:07:19;;;;;;;12.40;5.40;;;;;;;6.76;88.75;100661.41;105104;1261;99019;-75
2023/01/14 08:10:06;;;;;;;12.10;6.00;;;;;;;6.79;88.73;100664.30;105107;1258;97875;-75
2023/01/14 08:12:52;;;;;;;11.10;5.20;;;;;;;6.81;88.79;100672.79;105101;1261;99202;-75
2023/01/14 08:15:37;;;;;;;7.60;3.80;;;;;;;6.83;88.85;100674.12;105178;1258;101381;-75
2023/01/14 08:18:24;;;;;;;10.70;3.70;;;;;;;6.85;88.68;100677.13;105138;1260;99223;-74
2023/01/14 08:21:10;;;;;;;8.00;3.90;;;;;;;6.87;88.80;100682.77;105185;1261;99005;-75
2023/01/14 08:23:55;;;;;;;7.60;3.00;;;;;;;6.89;88.84;100682.92;105258;1257;97943;-74
2023/01/14 08:26:40;;;;;;;10.50;4.20;;;;;;;6.91;88.81;100683.96;105106;1258;98482;-76
2023/01/14 08:29:26;;;;;;;6.60;3.40;;;;;;;6.92;88.73;100684.30;105086;1261;102701;-74
2023/01/14 08:32:13;;;;;;;6.60;3.70;;;;;;;6.94;88.82;100685.73;105135;1260;99484;-74
2023/01/14 08:34:58;;;;;;;10.20;6.10;;;;;;;6.95;88.80;100687.57;105050;1264;97988;-74
2023/01/14 08:37:44;;;;;;;8.10;4.50;;;;;;;6.96;88.64;100689.38;105042;1261;97977;-74
2023/01/14 08:40:29;;;;;;;7.20;3.80;;;;;;;6.99;88.81;100690.15;105050;1257;98406;-74
2023/01/14 08:43:15;;;;;;;7.70;3.70;;;;;;;7.02;88.89;100698.35;105055;1259;102266;-74
2023/01/14 08:46:01;;;;;;;9.10;3.60;;;;;;;7.05;88.71;100700.59;105090;1261;99074;-74
2023/01/14 08:48:46;;;;;;;6.50;3.10;;;;;;;7.08;88.62;100701.46;104859;1263;98330;-74
2023/01/14 08:51:31;;;;;;;6.10;3.00;;;;;;;7.11;88.77;100698.84;104999;1264;99310;-74
2023/01/14 08:54:17;;;;;;;9.70;3.40;;;;;;;7.15;88.71;100703.46;105047;1257;98010;-74
2023/01/14 08:57:02;;;;;;;7.80;2.90;;;;;;;7.19;88.71;100707.99;105207;1261;102640;-73
2023/01/14 08:59:48;;;;;;;6.40;2.60;;;;;;;7.22;88.52;100711.20;104980;1261;100825;-74
2023/01/14 09:02:34;;;;;;;8.60;2.50;;;;;;;7.25;88.42;100717.80;105056;1279;98282;-74
2023/01/14 09:05:20;;;;;;;7.40;2.90;;;;;;;7.27;88.37;100727.85;105071;1263;99241;-75
2023/01/14 09:17:23;;;;;;;6.40;3.00;;;;;;;7.32;88.22;100735.17;104972;1264;98569;-75
2023/01/14 09:20:16;;;;;;;7.20;3.60;;;;;;;7.34;88.36;100740.10;105085;1261;99250;-74
2023/01/14 09:23:03;;;;;;;5.40;2.90;;;;;;;7.35;88.47;100739.81;105069;1258;99139;-74
2023/01/14 09:25:48;;;;;;;8.40;2.70;;;;;;;7.37;88.34;100740.48;105149;1258;102641;-75
2023/01/14 09:28:34;;;;;;;8.40;3.20;;;;;;;7.38;88.32;100738.92;105155;1258;99261;-75
2023/01/14 09:31:20;;;;;;;5.60;2.80;;;;;;;7.39;88.29;100743.98;105070;1258;98971;-74
2023/01/14 09:34:05;;;;;;;8.30;3.20;;;;;;;7.41;88.16;100745.05;104971;1258;98595;-74
2023/01/14 09:36:53;;;;;;;5.70;2.80;;;;;;;7.43;88.28;100748.39;105044;1258;97897;-75
2023/01/14 09:39:39;;;;;;;8.90;3.50;;;;;;;7.44;88.03;100752.85;105153;1263;101417;-74
2023/01/14 09:42:36;;;;;;;7.10;3.20;;;;;;;7.46;88.15;100756.39;105156;1260;100425;-74
2023/01/14 09:45:30;;;;;;;7.90;3.00;;;;;;;7.47;88.27;100752.16;105015;1258;98026;-74
2023/01/14 09:48:19;;;;;;;6.50;2.80;;;;;;;7.47;88.11;100751.26;105130;1274;98592;-73
2023/01/14 09:51:13;;;;;;;5.60;2.40;;;;;;;7.48;88.26;100751.91;105079;1261;97925;-74
2023/01/14 09:54:26;;;;;;;9.20;2.90;;;;;;;7.49;88.58;100749.52;105140;1259;101321;-74
2023/01/14 09:57:37;;;;;;;7.00;3.20;;;;;;;7.49;88.84;100753.94;105099;1257;99211;-75
2023/01/14 10:00:34;;;;;;;8.00;2.90;;;;;;;7.48;89.05;100756.80;105146;1261;99323;-74
2023/01/14 10:03:39;;;;;;;6.40;2.80;;;;;;;7.49;88.82;100757.64;105195;1260;97952;-74
2023/01/14 10:06:25;;;;;;;8.20;3.40;;;;;;;7.50;89.14;100755.61;105113;1261;98487;-74
2023/01/14 10:09:21;;;;;;;6.80;3.20;;;;;;;7.51;89.14;100755.44;105156;1259;102357;-75
2023/01/14 10:12:16;;;;;;;10.90;4.80;;;;;;;7.51;88.88;100756.94;105181;1261;99275;-74
2023/01/14 10:15:17;;;;;;;39.20;16.70;;;;;;;7.54;89.19;100761.41;105091;1258;99346;-74
2023/01/14 10:18:28;;;;;;;16.50;8.30;;;;;;;7.55;88.97;100758.18;105155;1261;97938;-74
2023/01/14 10:21:24;;;;;;;10.60;4.50;;;;;;;7.58;88.99;100752.19;105151;1261;98020;-74
2023/01/14 10:24:14;;;;;;;8.20;4.10;;;;;;;7.60;88.79;100750.89;105088;1264;102218;-75
2023/01/14 10:27:01;;;;;;;7.60;4.00;;;;;;;7.64;88.85;100754.74;105359;1258;100342;-74
2023/01/14 10:29:47;;;;;;;9.00;3.30;;;;;;;7.68;88.90;100751.27;105112;1263;99215;-76
2023/01/14 10:32:33;;;;;;;12.30;9.30;;;;;;;7.72;88.99;100747.88;105147;1264;97971;-74
2023/01/14 10:35:31;;;;;;;14.70;11.60;;;;;;;7.75;88.96;100743.29;105125;1262;98602;-74
2023/01/14 10:38:23;;;;;;;17.50;9.30;;;;;;;7.76;88.55;100739.76;105029;1263;101319;-76
2023/01/14 10:41:10;;;;;;;17.90;11.30;;;;;;;7.78;88.49;100740.45;105091;1261;100394;-75
2023/01/14 10:43:55;;;;;;;16.10;7.50;;;;;;;7.82;88.64;100739.13;105043;1260;98568;-76
2023/01/14 10:46:42;;;;;;;8.60;4.40;;;;;;;7.85;88.38;100735.08;105121;1259;97970;-76
2023/01/14 10:49:37;;;;;;;9.10;5.00;;;;;;;7.87;87.92;100734.86;105163;1257;98573;-73
2023/01/14 10:52:31;;;;;;;9.10;4.20;;;;;;;7.90;88.06;100733.79;105170;1258;101503;-74
2023/01/14 10:55:21;;;;;;;9.30;4.50;;;;;;;7.95;88.12;100731.13;105154;1257;100327;-74
2023/01/14 10:58:15;;;;;;;7.50;5.70;;;;;;;8.01;88.10;100733.57;105586;1264;98358;-76
2023/01/14 11:01:10;;;;;;;10.20;4.70;;;;;;;8.04;87.84;100733.23;105287;1257;99266;-76
2023/01/14 11:03:56;;;;;;;9.50;5.30;;;;;;;8.07;87.68;100734.14;105237;1258;98457;-76
2023/01/14 11:06:41;;;;;;;8.60;4.20;;;;;;;8.11;87.71;100727.79;105153;1257;101809;-76
2023/01/14 11:09:29;;;;;;;11.00;4.00;;;;;;;8.15;87.44;100727.85;105149;1261;100327;-74
2023/01/14 11:12:27;;;;;;;7.80;4.10;;;;;;;8.17;87.17;100727.13;105163;1257;98162;-75
2023/01/14 11:15:38;;;;;;;11.20;3.50;;;;;;;8.18;86.77;100726.70;105218;1260;98029;-75
2023/01/14 11:18:30;;;;;;;8.00;4.40;;;;;;;8.16;86.35;100728.62;105090;1258;98054;-72
2023/01/14 11:21:16;;;;;;;;;;;;;;;8.15;86.32;100730.72;105005;1261;101473;-74
2023/01/14 11:24:37;;;;;;;7.50;4.10;;;;;;;8.12;86.24;100735.77;105187;1257;99396;-74
2023/01/14 11:27:25;;;;;;;9.40;6.60;;;;;;;8.13;86.31;100733.59;105084;1259;97949;-75
2023/01/14 11:30:17;;;;;;;8.40;4.30;;;;;;;8.16;86.42;100732.36;105139;1261;98017;-75
2023/01/14 11:33:02;;;;;;;9.40;3.70;;;;;;;8.18;86.29;100727.55;105181;1262;98476;-75
2023/01/14 11:35:54;;;;;;;10.90;4.50;;;;;;;8.20;86.21;100726.22;105196;1259;101382;-75
2023/01/14 11:38:46;;;;;;;10.80;5.20;;;;;;;8.23;86.34;100725.02;105247;1276;99162;-75
2023/01/14 11:41:40;;;;;;;8.70;4.00;;;;;;;8.26;86.23;100725.20;105280;1263;98009;-77
2023/01/14 11:44:28;;;;;;;8.80;3.50;;;;;;;8.29;86.05;100725.27;105374;1258;97970;-74
2023/01/14 11:47:17;;;;;;;7.90;3.00;;;;;;;8.28;85.65;100724.40;105151;1261;97762;-74
2023/01/14 11:50:14;;;;;;;7.10;3.90;;;;;;;8.27;85.31;100721.56;105253;1270;102570;-77
2023/01/14 11:53:06;;;;;;;9.50;4.40;;;;;;;8.26;85.21;100717.03;105150;1263;99138;-74
2023/01/14 11:55:55;;;;;;;7.50;3.70;;;;;;;8.28;85.52;100722.11;105191;1261;98964;-77
2023/01/14 11:58:40;;;;;;;9.40;3.60;;;;;;;8.28;85.23;100716.58;105140;1261;98229;-75
2023/01/14 12:01:38;;;;;;;12.20;4.40;;;;;;;8.28;85.18;100720.73;105359;1261;97895;-75
2023/01/14 12:04:32;;;;;;;123.50;66.00;;;;;;;8.28;85.24;100712.77;105371;1257;102724;-74
2023/01/14 12:07:23;;;;;;;64.60;39.70;;;;;;;8.29;85.09;100707.45;105314;1257;99114;-75
2023/01/14 12:10:24;;;;;;;19.90;10.00;;;;;;;8.31;85.51;100699.80;105313;1261;99070;-75
2023/01/14 12:16:50;;;;;;;10.10;6.10;;;;;;;8.39;85.59;100696.04;105081;1257;98513;-74
2023/01/14 12:19:52;;;;;;;12.10;6.10;;;;;;;8.42;85.36;100696.56;105117;1258;102653;-75
2023/01/14 12:23:04;;;;;;;14.80;8.10;;;;;;;8.41;84.92;100694.92;105098;1262;99996;-76
2023/01/14 12:25:53;;;;;;;13.60;7.00;;;;;;;8.37;84.56;100690.23;105101;1264;98379;-74
2023/01/14 12:28:41;;;;;;;9.20;4.70;;;;;;;8.35;84.49;100683.46;105071;1257;98340;-74
2023/01/14 12:31:40;;;;;;;15.40;8.70;;;;;;;8.34;84.34;100683.16;105055;1259;98588;-74
2023/01/14 12:34:36;;;;;;;9.90;5.70;;;;;;;8.34;84.39;100684.87;105193;1263;101356;-75
2023/01/14 12:37:28;;;;;;;11.40;7.00;;;;;;;8.33;84.57;100686.14;105082;1257;99279;-74
2023/01/14 12:47:03;;;;;;;9.40;3.40;;;;;;;8.33;84.40;100680.86;105106;1261;97752;-74
2023/01/14 12:49:48;;;;;;;5.20;3.40;;;;;;;8.32;84.23;100682.94;105201;1261;102134;-75
2023/01/14 12:52:38;;;;;;;8.80;3.50;;;;;;;8.30;84.09;100682.23;105046;1263;99068;-75
2023/01/14 12:55:31;;;;;;;7.40;2.80;;;;;;;8.29;84.15;100682.17;105123;1261;98072;-74
2023/01/14 12:58:21;;;;;;;8.20;2.80;;;;;;;8.28;83.95;100681.54;105066;1261;98873;-74
2023/01/14 13:01:12;;;;;;;8.90;2.90;;;;;;;8.29;84.08;100682.04;105104;1262;98595;-76
2023/01/14 13:04:02;;;;;;;6.80;2.80;;;;;;;8.28;84.00;100683.84;105131;1264;101334;-74
2023/01/14 13:07:01;;;;;;;8.60;4.00;;;;;;;8.28;83.85;100685.35;105136;1264;99877;-74
2023/01/14 13:09:52;;;;;;;8.40;3.10;;;;;;;8.32;84.30;100686.84;105039;1261;99283;-74
2023/01/14 13:12:40;;;;;;;7.90;3.70;;;;;;;8.37;84.43;100688.92;105061;1261;97907;-74
2023/01/14 13:15:30;;;;;;;4.70;2.60;;;;;;;8.41;84.05;100687.61;105326;1256;98647;-74
2023/01/14 13:18:34;;;;;;;6.60;3.00;;;;;;;8.43;84.03;100682.38;105127;1258;102166;-74
2023/01/14 13:21:58;;;;;;;4.60;2.90;;;;;;;8.44;83.70;100680.80;105143;1259;100911;-74
2023/01/14 13:24:47;;;;;;;8.00;3.00;;;;;;;8.43;83.82;100681.48;105119;1264;97975;-76
2023/01/14 13:27:40;;;;;;;8.20;3.20;;;;;;;8.45;84.17;100678.77;105079;1261;97938;-74
2023/01/14 13:30:25;;;;;;;7.00;3.00;;;;;;;8.48;84.17;100678.26;105166;1258;99569;-74
2023/01/14 13:33:20;;;;;;;9.30;3.30;;;;;;;8.49;83.93;100682.73;105116;1270;102648;-74
2023/01/14 13:36:11;;;;;;;5.40;3.40;;;;;;;8.49;83.99;100683.26;105158;1261;99226;-74
2023/01/14 13:39:03;;;;;;;11.10;3.80;;;;;;;8.46;83.85;100679.73;105066;1261;98933;-74
2023/01/14 13:41:52;;;;;;;9.30;3.70;;;;;;;8.41;83.61;100675.34;105290;1257;99142;-75
2023/01/14 13:44:45;;;;;;;7.60;3.50;;;;;;;8.40;83.81;100681.14;105108;1261;98521;-76
2023/01/14 13:47:36;;;;;;;8.80;4.90;;;;;;;8.40;84.25;100677.14;105055;1259;101411;-75